Time;durP1;ratioP1;P1;durP2;ratioP2;P2;SDS_P1;SDS_P2;PMS_P1;PMS_P2;Temp;Humidity;BMP_temperature;BMP_pressure;BME280_temperature;BME280_humidity;BME280_pressure;Samples;Min_cycle;Max_cycle;Signal;HPM_P1;HPM_P2
2022/01/13 00:01:46;;;;;;;77.57;30.02;;;;;;;-1.21;78.70;98405.16;5030724;28;20045;-74
2022/01/13 00:04:15;;;;;;;77.25;28.80;;;;;;;-1.10;78.55;98415.38;5030914;28;20069;-74
2022/01/13 00:06:43;;;;;;;77.22;31.40;;;;;;;-1.07;78.24;98411.47;5031117;28;20052;-74
2022/01/13 00:09:10;;;;;;;71.22;29.27;;;;;;;-1.07;77.97;98406.13;5030732;28;20052;-74
2022/01/13 00:11:37;;;;;;;70.45;28.45;;;;;;;-1.03;78.10;98418.09;5030504;28;20045;-74
2022/01/13 00:17:09;;;;;;;69.68;28.83;;;;;;;-0.96;77.88;98418.94;5030755;28;20053;-74
2022/01/13 00:19:49;;;;;;;67.45;26.58;;;;;;;-0.94;76.98;98416.94;5030693;28;20060;-74
2022/01/13 00:22:22;;;;;;;69.40;27.80;;;;;;;-0.93;77.12;98423.09;5029972;28;20061;-74
2022/01/13 00:24:52;;;;;;;71.73;27.57;;;;;;;-0.87;77.01;98428.50;5030867;28;20049;-74
2022/01/13 00:27:18;;;;;;;68.63;26.75;;;;;;;-0.94;76.71;98434.78;5030168;28;20041;-74
2022/01/13 00:29:46;;;;;;;67.90;27.38;;;;;;;-0.95;77.27;98442.00;5030525;28;20049;-74
2022/01/13 00:32:14;;;;;;;69.05;27.63;;;;;;;-0.94;77.48;98443.66;5030036;28;20057;-74
2022/01/13 00:34:44;;;;;;;70.28;25.85;;;;;;;-0.88;76.96;98432.19;5030379;28;20053;-74
2022/01/13 00:37:10;;;;;;;69.78;27.27;;;;;;;-0.88;76.61;98426.84;5029636;28;20061;-74
2022/01/13 00:39:37;;;;;;;65.55;28.77;;;;;;;-0.91;76.43;98432.56;5030262;28;20057;-74
2022/01/13 00:42:04;;;;;;;65.88;27.20;;;;;;;-0.94;76.57;98432.97;5028732;28;20056;-73
2022/01/13 00:44:36;;;;;;;67.25;28.05;;;;;;;-0.95;76.91;98433.16;5030501;28;20053;-74
2022/01/13 00:47:04;;;;;;;68.60;29.13;;;;;;;-0.92;76.97;98422.91;5029710;28;20054;-73
2022/01/13 00:49:31;;;;;;;64.68;25.23;;;;;;;-0.93;76.92;98418.56;5030018;28;20049;-74
2022/01/13 00:51:59;;;;;;;69.10;28.73;;;;;;;-0.92;77.03;98430.09;5029924;28;20463;-74
2022/01/13 00:54:25;;;;;;;77.75;28.40;;;;;;;-0.92;77.02;98422.06;5029706;28;20049;-74
2022/01/13 00:56:52;;;;;;;71.38;27.60;;;;;;;-0.90;77.25;98418.16;5029844;28;20046;-74
2022/01/13 00:59:19;;;;;;;69.57;27.95;;;;;;;-0.86;76.75;98408.75;5029676;28;20049;-74
2022/01/13 01:01:47;;;;;;;70.45;28.42;;;;;;;-0.90;76.28;98407.47;5028865;28;20056;-74
2022/01/13 01:04:14;;;;;;;66.53;25.77;;;;;;;-0.97;76.55;98422.66;5029313;28;20049;-74
2022/01/13 01:06:41;;;;;;;65.50;27.20;;;;;;;-1.01;76.96;98420.56;5030202;28;20046;-74
2022/01/13 01:09:14;;;;;;;64.68;26.52;;;;;;;-1.12;77.07;98429.94;5029647;28;20587;-73
2022/01/13 01:11:41;;;;;;;68.28;27.00;;;;;;;-1.29;77.59;98428.53;5029443;28;20678;-74
2022/01/13 01:14:08;;;;;;;64.07;25.50;;;;;;;-1.34;77.94;98427.28;5029393;28;20045;-74
2022/01/13 01:16:36;;;;;;;66.63;26.48;;;;;;;-1.38;78.18;98427.84;5029562;28;20091;-74
2022/01/13 01:19:06;;;;;;;74.78;27.90;;;;;;;-1.38;78.62;98426.00;5029213;28;20065;-74
2022/01/13 01:22:13;;;;;;;63.00;25.48;;;;;;;-1.37;78.91;98434.84;5029208;28;20416;-74
2022/01/13 01:27:35;;;;;;;67.53;25.08;;;;;;;-1.45;78.73;98437.66;5009485;28;20160;-74
2022/01/13 01:30:08;;;;;;;70.38;27.92;;;;;;;-1.48;78.58;98444.19;5009078;28;20049;-74
2022/01/13 01:32:37;;;;;;;73.50;28.67;;;;;;;-1.43;78.74;98443.63;5009931;28;20057;-74
2022/01/13 01:35:12;;;;;;;73.38;27.95;;;;;;;-1.43;79.09;98433.75;5009032;28;20108;-74
2022/01/13 01:37:39;;;;;;;70.78;27.38;;;;;;;-1.38;78.66;98436.69;5009313;28;20046;-74
2022/01/13 01:40:09;;;;;;;70.65;27.88;;;;;;;-1.37;78.69;98432.97;5008610;28;20132;-74
2022/01/13 01:42:36;;;;;;;74.97;29.50;;;;;;;-1.32;78.95;98435.91;5008286;28;20057;-74
2022/01/13 01:45:04;;;;;;;74.53;28.20;;;;;;;-1.28;78.29;98435.53;5009012;28;20058;-73
2022/01/13 01:47:32;;;;;;;69.50;28.35;;;;;;;-1.26;78.29;98441.50;5008960;28;20525;-74
2022/01/13 01:50:05;;;;;;;72.30;28.65;;;;;;;-1.22;78.27;98440.13;5008994;28;20049;-74
2022/01/13 01:52:32;;;;;;;67.57;26.88;;;;;;;-1.30;78.06;98438.41;5009026;28;20067;-78
2022/01/13 01:54:58;;;;;;;67.10;26.55;;;;;;;-1.34;77.95;98440.63;5009257;28;20069;-74
2022/01/13 01:57:26;;;;;;;73.72;26.70;;;;;;;-1.41;77.78;98430.88;5008740;28;20046;-74
2022/01/13 01:59:54;;;;;;;74.85;28.27;;;;;;;-1.46;77.82;98428.81;5009010;28;20050;-75
2022/01/13 02:02:21;;;;;;;73.57;26.70;;;;;;;-1.43;78.29;98433.75;5008497;28;20054;-74
2022/01/13 02:04:47;;;;;;;69.68;27.42;;;;;;;-1.42;78.54;98435.41;5008994;28;20409;-74
2022/01/13 02:07:14;;;;;;;72.93;28.05;;;;;;;-1.39;78.59;98440.38;5008544;28;20048;-74
2022/01/13 02:09:44;;;;;;;69.35;26.20;;;;;;;-1.39;78.48;98451.06;5009022;28;20049;-74
2022/01/13 02:12:19;;;;;;;64.80;24.90;;;;;;;-1.36;78.40;98450.69;5007540;28;20079;-74
2022/01/13 02:14:56;;;;;;;71.22;27.45;;;;;;;-1.39;78.19;98440.38;5009185;28;20061;-74
2022/01/13 02:17:25;;;;;;;66.35;24.95;;;;;;;-1.36;78.14;98442.69;5008591;28;20115;-74
2022/01/13 02:19:54;;;;;;;61.67;25.10;;;;;;;-1.36;78.08;98439.16;5008868;28;20128;-74
2022/01/13 02:22:24;;;;;;;65.32;25.23;;;;;;;-1.34;77.87;98443.31;5008214;28;20065;-74
2022/01/13 02:24:51;;;;;;;69.75;26.80;;;;;;;-1.33;77.20;98431.59;5008687;28;20054;-74
2022/01/13 02:27:18;;;;;;;64.63;24.63;;;;;;;-1.46;77.25;98427.94;5008164;28;20054;-74
2022/01/13 02:29:44;;;;;;;63.97;25.65;;;;;;;-1.54;77.66;98418.22;5008366;28;20053;-73
2022/01/13 02:32:11;;;;;;;66.55;25.80;;;;;;;-1.58;77.52;98414.28;5007757;28;20050;-74
2022/01/13 02:34:37;;;;;;;65.15;25.67;;;;;;;-1.57;78.34;98421.25;5008083;28;20527;-74
2022/01/13 02:37:04;;;;;;;67.60;25.85;;;;;;;-1.65;78.53;98419.56;5007722;28;20049;-74
2022/01/13 02:39:33;;;;;;;63.28;26.08;;;;;;;-1.75;79.11;98423.56;5008031;28;20053;-74
2022/01/13 02:42:01;;;;;;;65.80;26.45;;;;;;;-1.76;79.48;98435.25;5007859;28;20056;-74
2022/01/13 02:44:30;;;;;;;68.38;26.88;;;;;;;-1.73;79.83;98435.69;5007618;28;20041;-74
2022/01/13 02:47:09;;;;;;;73.72;27.48;;;;;;;-1.65;79.94;98440.94;5007780;28;20152;-74
2022/01/13 02:49:36;;;;;;;72.95;26.90;;;;;;;-1.56;79.48;98427.47;5007760;28;20056;-74
2022/01/13 02:52:03;;;;;;;70.65;27.77;;;;;;;-1.50;79.27;98432.88;5007645;28;20042;-74
2022/01/13 02:54:32;;;;;;;71.18;27.13;;;;;;;-1.48;78.80;98440.69;5008127;28;20053;-74
2022/01/13 02:56:59;;;;;;;70.80;26.73;;;;;;;-1.51;78.51;98441.06;5007715;28;20060;-74
2022/01/13 02:59:25;;;;;;;66.30;25.17;;;;;;;-1.51;78.65;98446.41;5007558;28;20060;-74
2022/01/13 03:01:52;;;;;;;68.32;25.42;;;;;;;-1.45;79.04;98441.13;5007399;28;20037;-74
2022/01/13 03:04:21;;;;;;;66.25;25.13;;;;;;;-1.43;78.84;98439.09;5007540;28;20050;-74
2022/01/13 03:06:48;;;;;;;68.20;25.67;;;;;;;-1.41;78.75;98442.41;5007855;28;20052;-74
2022/01/13 03:09:14;;;;;;;69.50;26.27;;;;;;;-1.41;78.54;98439.75;5007326;28;20050;-74
2022/01/13 03:11:44;;;;;;;73.85;27.38;;;;;;;-1.46;78.92;98441.31;5006732;28;20056;-74
2022/01/13 03:14:12;;;;;;;56.40;21.92;;;;;;;-1.49;78.63;98439.03;5007474;28;20413;-74
2022/01/13 03:16:38;;;;;;;71.72;24.55;;;;;;;-1.55;78.73;98442.47;5007711;28;20048;-74
2022/01/13 03:19:05;;;;;;;62.90;25.48;;;;;;;-1.54;79.02;98428.91;5007400;28;20053;-74
2022/01/13 03:21:32;;;;;;;65.13;24.58;;;;;;;-1.54;79.15;98434.25;5007626;28;20056;-74
2022/01/13 03:23:58;;;;;;;58.88;23.35;;;;;;;-1.53;79.17;98443.91;5007571;28;20073;-74
2022/01/13 03:26:25;;;;;;;61.88;23.83;;;;;;;-1.51;79.03;98431.22;5010159;28;20046;-74
2022/01/13 03:29:03;;;;;;;70.50;25.45;;;;;;;-1.49;79.11;98423.81;5011708;28;20041;-74
2022/01/13 03:31:30;;;;;;;66.25;25.38;;;;;;;-1.52;78.89;98426.88;5011368;28;20061;-74
2022/01/13 03:33:56;;;;;;;71.38;26.40;;;;;;;-1.44;78.97;98432.09;5011684;28;20045;-74
2022/01/13 03:36:23;;;;;;;75.95;25.77;;;;;;;-1.47;78.86;98421.78;5011010;28;20056;-74
2022/01/13 03:38:51;;;;;;;56.47;23.38;;;;;;;-1.38;78.91;98415.31;5011495;28;20045;-74
2022/01/13 03:41:19;;;;;;;69.03;26.20;;;;;;;-1.36;78.17;98413.28;5007704;28;20574;-74
2022/01/13 03:43:46;;;;;;;69.75;25.95;;;;;;;-1.39;78.47;98418.16;5011588;28;20049;-74
2022/01/13 03:46:14;;;;;;;71.38;27.55;;;;;;;-1.42;78.04;98414.03;5011182;28;20145;-74
2022/01/13 03:48:41;;;;;;;70.63;25.48;;;;;;;-1.45;77.91;98409.06;5011689;28;20136;-74
2022/01/13 03:51:08;;;;;;;69.30;25.98;;;;;;;-1.41;77.89;98423.72;5011023;28;20057;-74
2022/01/13 03:54:38;;;;;;;65.45;26.05;;;;;;;-1.39;77.94;98413.66;5011758;28;20438;-74
2022/01/13 03:58:10;;;;;;;63.55;25.38;;;;;;;-1.42;78.47;98408.69;5010864;28;20054;-74
2022/01/13 04:01:37;;;;;;;65.88;26.02;;;;;;;-1.61;79.09;98398.66;5011397;28;20041;-74
2022/01/13 04:04:05;;;;;;;71.65;25.30;;;;;;;-1.76;79.96;98405.88;5007811;28;20565;-74
2022/01/13 04:06:39;;;;;;;70.85;26.00;;;;;;;-1.90;80.13;98404.91;5010712;28;20550;-74
2022/01/13 04:09:09;;;;;;;70.25;27.45;;;;;;;-1.95;80.48;98401.97;5010562;28;20505;-74
2022/01/13 04:11:36;;;;;;;74.40;27.08;;;;;;;-1.85;81.38;98411.31;5009353;28;20557;-74
2022/01/13 04:14:05;;;;;;;73.13;27.65;;;;;;;-1.78;81.23;98413.22;5010534;28;20077;-74
2022/01/13 04:16:34;;;;;;;74.47;27.45;;;;;;;-1.72;81.08;98423.16;5010973;28;20041;-74
2022/01/13 04:19:04;;;;;;;74.40;27.45;;;;;;;-1.65;81.01;98435.59;5011026;28;20421;-74
2022/01/13 04:21:33;;;;;;;72.00;26.15;;;;;;;-1.61;80.74;98439.53;5010554;28;20053;-74
2022/01/13 04:24:00;;;;;;;65.63;25.35;;;;;;;-1.65;80.54;98440.09;5010976;28;20049;-74
2022/01/13 04:26:30;;;;;;;67.32;26.52;;;;;;;-1.68;80.14;98435.94;5010414;28;20057;-74
2022/01/13 04:29:04;;;;;;;76.72;27.02;;;;;;;-1.72;80.01;98433.84;5010705;28;20545;-74
2022/01/13 04:31:30;;;;;;;69.97;25.52;;;;;;;-1.68;80.50;98429.78;5010219;28;20120;-74
2022/01/13 04:33:57;;;;;;;75.88;27.08;;;;;;;-1.67;80.62;98426.09;5010746;28;20053;-74
2022/01/13 04:36:23;;;;;;;70.30;27.00;;;;;;;-1.69;79.85;98428.97;5009511;28;20056;-74
2022/01/13 04:38:51;;;;;;;67.97;25.70;;;;;;;-1.64;79.99;98420.38;5009964;28;20054;-74
2022/01/13 04:41:28;;;;;;;68.68;26.80;;;;;;;-1.65;79.91;98411.53;5007999;28;20409;-74
2022/01/13 04:43:54;;;;;;;69.43;26.10;;;;;;;-1.77;80.23;98410.41;5010203;28;20496;-74
2022/01/13 04:46:21;;;;;;;71.30;25.67;;;;;;;-1.79;80.79;98422.28;5010174;28;20046;-74
2022/01/13 04:48:47;;;;;;;74.60;26.73;;;;;;;-1.89;80.78;98418.03;5010456;28;20057;-74
2022/01/13 04:51:14;;;;;;;72.60;26.13;;;;;;;-2.00;81.25;98421.22;5009755;28;20054;-74
2022/01/13 04:53:40;;;;;;;75.72;26.15;;;;;;;-2.07;81.94;98420.31;5010535;28;20045;-74
2022/01/13 04:56:12;;;;;;;70.57;27.45;;;;;;;-2.06;81.86;98421.13;5009764;28;20057;-74
2022/01/13 04:58:39;;;;;;;73.38;27.77;;;;;;;-2.02;82.30;98423.25;5010386;28;20053;-74
2022/01/13 05:01:05;;;;;;;83.30;29.67;;;;;;;-1.92;82.16;98418.44;5009764;28;20060;-74
2022/01/13 05:03:32;;;;;;;77.80;28.45;;;;;;;-1.79;82.47;98415.09;5010255;28;20069;-74
2022/01/13 05:05:58;;;;;;;81.95;28.33;;;;;;;-1.75;81.35;98428.91;5010293;28;20060;-74
2022/01/13 05:08:25;;;;;;;84.57;28.90;;;;;;;-1.69;81.46;98428.97;5009691;28;20038;-74
2022/01/13 05:10:51;;;;;;;78.60;27.45;;;;;;;-1.62;80.88;98431.69;5008373;28;20054;-74
2022/01/13 05:13:19;;;;;;;77.90;28.10;;;;;;;-1.65;80.13;98429.41;5009596;28;20053;-75
2022/01/13 05:15:46;;;;;;;75.18;25.65;;;;;;;-1.60;80.10;98422.50;5010212;28;20489;-74
2022/01/13 05:18:23;;;;;;;75.18;25.92;;;;;;;-1.68;79.79;98435.13;5009476;28;20141;-74
2022/01/13 05:20:57;;;;;;;75.70;26.98;;;;;;;-1.74;80.22;98433.22;5009952;28;20060;-74
2022/01/13 05:23:23;;;;;;;70.45;26.90;;;;;;;-1.82;80.37;98422.66;5009271;28;20120;-74
2022/01/13 05:25:50;;;;;;;75.45;26.58;;;;;;;-1.81;80.62;98418.97;5009625;28;20050;-74
2022/01/13 05:28:16;;;;;;;73.43;26.27;;;;;;;-1.85;80.65;98430.03;5008987;28;20046;-74
2022/01/13 05:30:44;;;;;;;76.63;26.55;;;;;;;-1.82;80.99;98433.34;5009269;28;20548;-74
2022/01/13 05:33:11;;;;;;;69.40;26.02;;;;;;;-1.79;80.66;98432.94;5009017;28;20057;-74
2022/01/13 05:35:37;;;;;;;67.55;25.52;;;;;;;-1.77;80.71;98441.63;5009422;28;20053;-74
2022/01/13 05:38:06;;;;;;;72.53;25.58;;;;;;;-1.74;80.46;98441.22;5008707;28;20053;-74
2022/01/13 05:40:32;;;;;;;68.25;27.52;;;;;;;-1.74;80.38;98442.06;5008244;28;20069;-74
2022/01/13 05:42:59;;;;;;;62.03;23.27;;;;;;;-1.81;79.40;98441.16;5008793;28;20456;-74
2022/01/13 05:45:29;;;;;;;65.05;24.65;;;;;;;-1.88;79.53;98446.44;5009015;28;20056;-74
2022/01/13 05:47:59;;;;;;;74.45;26.63;;;;;;;-1.82;79.78;98452.03;5009255;28;20049;-74
2022/01/13 05:50:26;;;;;;;66.70;25.67;;;;;;;-1.76;80.07;98443.28;5008477;28;20053;-74
2022/01/13 05:52:53;;;;;;;71.05;25.88;;;;;;;-1.81;79.86;98459.03;5009056;28;20493;-74
2022/01/13 05:55:20;;;;;;;62.00;25.23;;;;;;;-1.87;79.68;98461.44;5008553;28;20058;-74
2022/01/13 05:57:46;;;;;;;67.30;25.58;;;;;;;-1.81;80.19;98472.38;5009314;28;20050;-74
2022/01/13 06:00:15;;;;;;;66.85;25.38;;;;;;;-1.76;80.11;98472.66;5008367;28;20061;-74
2022/01/13 06:02:42;;;;;;;74.38;26.65;;;;;;;-1.75;79.59;98476.97;5008925;28;20049;-74
2022/01/13 06:05:11;;;;;;;72.75;27.17;;;;;;;-1.70;79.61;98475.38;5008842;28;20046;-74
2022/01/13 06:07:39;;;;;;;67.35;25.52;;;;;;;-1.76;78.82;98470.81;5009147;28;20465;-74
2022/01/13 06:10:08;;;;;;;65.55;25.83;;;;;;;-1.75;78.77;98471.63;5008080;28;20052;-73
2022/01/13 06:12:37;;;;;;;69.05;26.55;;;;;;;-1.81;78.45;98475.06;5006708;28;20050;-74
2022/01/13 06:15:06;;;;;;;73.30;27.17;;;;;;;-1.84;78.70;98469.06;5008330;28;20108;-74
2022/01/13 06:17:32;;;;;;;64.70;25.40;;;;;;;-1.88;78.56;98467.78;5008602;28;20053;-74
2022/01/13 06:19:59;;;;;;;64.18;25.95;;;;;;;-1.93;78.14;98464.00;5007484;28;20058;-74
2022/01/13 06:22:27;;;;;;;67.63;26.25;;;;;;;-1.93;78.92;98458.66;5006900;28;20046;-78
2022/01/13 06:24:55;;;;;;;73.95;27.48;;;;;;;-1.89;79.02;98467.97;5008635;28;20053;-73
2022/01/13 06:27:22;;;;;;;65.65;26.83;;;;;;;-1.96;78.46;98477.75;5008079;28;20802;-73
2022/01/13 06:29:51;;;;;;;65.07;26.52;;;;;;;-1.94;78.64;98473.84;5008486;28;20129;-73
2022/01/13 06:32:17;;;;;;;68.25;26.02;;;;;;;-1.90;78.57;98488.50;5007976;28;20054;-72
2022/01/13 06:34:44;;;;;;;69.18;26.42;;;;;;;-1.88;78.91;98494.50;5008651;28;20131;-72
2022/01/13 06:37:10;;;;;;;65.07;25.20;;;;;;;-1.90;78.97;98491.16;5008090;28;20046;-73
2022/01/13 06:39:38;;;;;;;66.47;26.00;;;;;;;-1.84;79.58;98501.09;5008271;28;20049;-73
2022/01/13 06:42:05;;;;;;;61.95;25.58;;;;;;;-1.85;78.65;98494.09;5007439;28;20046;-73
2022/01/13 06:44:32;;;;;;;65.22;26.70;;;;;;;-2.03;79.07;98485.69;5007721;28;20130;-72
2022/01/13 06:46:59;;;;;;;75.57;27.80;;;;;;;-2.01;79.45;98488.97;5007054;28;20058;-72
2022/01/13 06:49:25;;;;;;;69.00;27.33;;;;;;;-2.01;80.00;98486.31;5006315;28;20389;-73
2022/01/13 06:51:52;;;;;;;67.28;26.40;;;;;;;-1.97;79.89;98487.59;5007835;28;20053;-71
2022/01/13 06:54:18;;;;;;;71.75;27.65;;;;;;;-1.86;80.25;98489.78;5007881;28;20054;-72
2022/01/13 06:56:46;;;;;;;65.50;25.60;;;;;;;-1.80;80.03;98490.88;5008398;28;20054;-72
2022/01/13 06:59:13;;;;;;;63.70;24.65;;;;;;;-1.77;79.52;98489.69;5007365;28;20076;-72
2022/01/13 07:01:41;;;;;;;68.75;26.30;;;;;;;-1.93;79.87;98485.34;5007685;28;20054;-72
2022/01/13 07:04:10;;;;;;;69.68;27.02;;;;;;;-2.00;80.43;98495.97;5007815;28;20054;-72
2022/01/13 07:06:37;;;;;;;66.10;26.17;;;;;;;-1.97;80.69;98484.94;5008262;28;20066;-73
2022/01/13 07:09:07;;;;;;;68.10;27.15;;;;;;;-1.99;80.52;98486.94;5007811;28;20057;-72
2022/01/13 07:11:33;;;;;;;64.03;26.38;;;;;;;-1.94;80.87;98497.88;5006264;28;20056;-72
2022/01/13 07:14:01;;;;;;;62.45;24.77;;;;;;;-2.04;80.21;98499.19;5008014;28;20073;-71
2022/01/13 07:16:27;;;;;;;63.50;25.10;;;;;;;-2.18;80.72;98504.34;5008075;28;20869;-72
2022/01/13 07:18:54;;;;;;;56.72;23.17;;;;;;;-2.19;80.99;98507.22;5008209;28;20046;-72
2022/01/13 07:21:24;;;;;;;60.38;25.10;;;;;;;-2.15;80.86;98509.31;5007592;28;20054;-72
2022/01/13 07:23:51;;;;;;;66.15;26.23;;;;;;;-2.06;81.56;98501.22;5008148;28;20067;-72
2022/01/13 07:26:17;;;;;;;62.42;23.80;;;;;;;-1.99;81.42;98502.94;5007398;28;20054;-72
2022/01/13 07:28:44;;;;;;;62.08;24.40;;;;;;;-1.95;80.92;98509.59;5008036;28;20042;-72
2022/01/13 07:31:14;;;;;;;65.60;25.50;;;;;;;-1.92;80.68;98508.41;5007314;28;20061;-72
2022/01/13 07:33:40;;;;;;;56.80;23.42;;;;;;;-1.96;80.56;98507.94;5007770;28;20057;-72
2022/01/13 07:36:07;;;;;;;60.92;24.17;;;;;;;-1.94;80.47;98515.75;5007350;28;20061;-72
2022/01/13 07:38:33;;;;;;;61.08;24.30;;;;;;;-1.97;80.27;98508.13;5007774;28;20050;-72
2022/01/13 07:41:00;;;;;;;63.13;24.70;;;;;;;-2.00;80.75;98514.66;5005915;28;20053;-72
2022/01/13 07:43:27;;;;;;;65.78;24.63;;;;;;;-2.07;80.68;98512.91;5007369;28;20061;-72
2022/01/13 07:45:54;;;;;;;61.88;24.25;;;;;;;-2.12;81.35;98508.13;5007934;28;20129;-72
2022/01/13 07:48:24;;;;;;;65.25;24.30;;;;;;;-2.05;81.75;98506.38;5007145;28;20053;-72
2022/01/13 07:50:50;;;;;;;64.22;25.75;;;;;;;-1.99;81.30;98502.94;5007860;28;20046;-72
2022/01/13 07:53:17;;;;;;;59.92;23.00;;;;;;;-1.96;80.90;98513.28;5007393;28;20509;-73
2022/01/13 07:55:44;;;;;;;61.95;24.45;;;;;;;-1.95;80.16;98514.09;5007799;28;20464;-73
2022/01/13 07:58:11;;;;;;;61.13;23.50;;;;;;;-1.97;79.85;98500.94;5007310;28;20058;-72
2022/01/13 08:00:38;;;;;;;59.40;23.33;;;;;;;-2.03;80.01;98522.22;5007753;28;20053;-72
2022/01/13 08:03:04;;;;;;;61.10;23.60;;;;;;;-2.05;80.34;98519.72;5007112;28;20488;-72
2022/01/13 08:05:32;;;;;;;58.60;24.88;;;;;;;-2.01;80.51;98515.66;5007621;28;20428;-72
2022/01/13 08:07:59;;;;;;;61.13;24.75;;;;;;;-1.87;81.03;98506.84;5007638;28;20080;-72
2022/01/13 08:10:25;;;;;;;64.55;24.60;;;;;;;-1.85;79.91;98512.81;5007138;28;20072;-72
2022/01/13 08:12:52;;;;;;;58.53;22.70;;;;;;;-1.88;79.77;98523.00;5010904;28;20054;-72
2022/01/13 08:15:18;;;;;;;59.65;23.08;;;;;;;-1.93;79.85;98528.09;5010586;28;20050;-72
2022/01/13 08:20:34;;;;;;;65.30;24.30;;;;;;;-1.90;79.98;98530.41;5010519;28;20057;-73
2022/01/13 08:23:02;;;;;;;69.60;25.10;;;;;;;-1.98;80.04;98539.34;5010926;28;20049;-72
2022/01/13 08:25:30;;;;;;;60.63;24.10;;;;;;;-1.97;80.50;98538.31;5010610;28;20060;-72
2022/01/13 08:27:56;;;;;;;64.35;24.83;;;;;;;-1.92;80.43;98545.78;5010573;28;20104;-72
2022/01/13 08:30:24;;;;;;;59.22;24.45;;;;;;;-1.90;80.14;98549.09;5010532;28;20054;-72
2022/01/13 08:32:51;;;;;;;59.45;23.90;;;;;;;-1.87;80.04;98548.72;5010974;28;20073;-72
2022/01/13 08:35:18;;;;;;;72.05;25.25;;;;;;;-1.82;80.35;98537.50;5010217;28;20056;-72
2022/01/13 08:37:46;;;;;;;57.60;21.63;;;;;;;-1.83;80.11;98536.63;5010485;28;20046;-72
2022/01/13 08:40:14;;;;;;;61.33;23.17;;;;;;;-1.78;79.91;98538.75;5027913;28;20045;-72
2022/01/13 08:42:41;;;;;;;58.67;21.85;;;;;;;-1.77;79.06;98527.91;5021872;28;20057;-72
2022/01/13 08:45:10;;;;;;;58.15;22.75;;;;;;;-1.78;79.24;98522.75;5030064;28;20436;-72
2022/01/13 08:47:37;;;;;;;58.17;22.95;;;;;;;-1.87;79.14;98528.19;5030299;28;20048;-72
2022/01/13 08:50:05;;;;;;;61.10;24.17;;;;;;;-2.01;79.55;98536.22;5029578;28;20053;-72
2022/01/13 08:52:33;;;;;;;64.78;24.17;;;;;;;-2.03;79.79;98541.75;5030066;28;20088;-72
2022/01/13 08:55:01;;;;;;;61.90;24.08;;;;;;;-2.00;80.65;98535.19;5030151;28;20065;-72
2022/01/13 08:57:27;;;;;;;62.50;23.52;;;;;;;-2.00;80.50;98544.03;5029737;28;20048;-72
2022/01/13 08:59:54;;;;;;;65.03;24.95;;;;;;;-2.02;80.39;98550.56;5029876;28;20045;-72
2022/01/13 09:02:20;;;;;;;62.10;23.95;;;;;;;-2.01;80.83;98552.22;5029704;28;20050;-72
2022/01/13 09:04:47;;;;;;;65.43;25.55;;;;;;;-1.98;80.99;98558.03;5029723;28;20046;-71
2022/01/13 09:07:13;;;;;;;66.22;23.92;;;;;;;-1.96;80.88;98553.31;5029433;28;20065;-72
2022/01/13 09:09:40;;;;;;;67.97;25.88;;;;;;;-1.95;80.64;98563.00;5029811;28;20048;-72
2022/01/13 09:12:09;;;;;;;70.05;25.88;;;;;;;-1.88;81.01;98563.94;5028644;28;20056;-73
2022/01/13 09:14:38;;;;;;;71.82;27.08;;;;;;;-1.67;81.32;98568.53;5029765;28;20050;-71
2022/01/13 09:17:09;;;;;;;61.63;25.73;;;;;;;-1.54;80.99;98559.84;5029037;28;20049;-73
2022/01/13 09:19:35;;;;;;;69.40;25.52;;;;;;;-1.44;80.22;98570.22;5029751;28;20041;-73
2022/01/13 09:22:02;;;;;;;68.57;26.27;;;;;;;-1.35;79.88;98569.94;5028205;28;20072;-72
2022/01/13 09:24:30;;;;;;;62.05;25.40;;;;;;;-1.23;79.56;98564.09;5027445;28;20049;-72
2022/01/13 09:26:56;;;;;;;64.43;25.13;;;;;;;-1.14;79.15;98573.69;5029597;28;20124;-72
2022/01/13 09:29:24;;;;;;;65.03;25.58;;;;;;;-1.09;78.74;98572.09;5029092;28;20056;-72
2022/01/13 09:31:50;;;;;;;68.82;25.52;;;;;;;-1.08;78.29;98567.56;5029588;28;20056;-72
2022/01/13 09:34:17;;;;;;;62.67;25.73;;;;;;;-1.16;78.53;98567.66;5028879;28;20061;-72
2022/01/13 09:36:43;;;;;;;63.80;26.50;;;;;;;-1.08;78.30;98571.06;5029427;28;20067;-72
2022/01/13 09:39:11;;;;;;;62.92;24.98;;;;;;;-1.03;77.69;98567.00;5028851;28;20056;-72
2022/01/13 09:41:42;;;;;;;64.72;25.67;;;;;;;-1.17;77.36;98556.16;5023970;28;20057;-72
2022/01/13 09:44:10;;;;;;;64.10;24.48;;;;;;;-1.26;77.91;98567.16;5018015;28;20167;-72
2022/01/13 09:46:38;;;;;;;65.20;25.63;;;;;;;-1.27;78.26;98571.66;5029188;28;20049;-72
2022/01/13 09:49:05;;;;;;;65.25;25.65;;;;;;;-1.21;78.33;98580.78;5028310;28;20509;-73
2022/01/13 09:51:33;;;;;;;63.10;24.73;;;;;;;-1.11;78.27;98575.94;5029033;28;20496;-73
2022/01/13 09:54:00;;;;;;;67.88;26.30;;;;;;;-1.03;77.78;98573.19;5028876;28;20049;-72
2022/01/13 09:56:26;;;;;;;65.78;26.50;;;;;;;-0.95;77.58;98575.72;5028505;28;20060;-72
2022/01/13 09:58:53;;;;;;;61.67;25.02;;;;;;;-0.88;77.47;98576.63;5028946;28;20078;-72
2022/01/13 10:01:20;;;;;;;68.32;26.13;;;;;;;-0.86;77.19;98573.75;5028100;28;20049;-73
2022/01/13 10:03:48;;;;;;;61.42;25.23;;;;;;;-0.84;77.12;98567.19;5028679;28;20048;-73
2022/01/13 10:06:16;;;;;;;61.55;24.42;;;;;;;-0.83;77.42;98568.84;5028259;28;20064;-72
2022/01/13 10:08:48;;;;;;;64.15;25.05;;;;;;;-0.83;76.53;98571.53;5028743;28;20053;-72
2022/01/13 10:11:29;;;;;;;66.28;26.80;;;;;;;-0.83;76.37;98563.50;5027813;28;20408;-72
2022/01/13 10:14:14;;;;;;;60.92;25.08;;;;;;;-0.75;76.56;98554.50;5028615;28;20633;-72
2022/01/13 10:16:45;;;;;;;67.85;25.83;;;;;;;-0.68;76.53;98559.91;5008816;28;20045;-73
2022/01/13 10:19:31;;;;;;;62.80;24.98;;;;;;;-0.58;75.88;98552.41;5008440;28;20053;-73
2022/01/13 10:21:59;;;;;;;67.65;25.30;;;;;;;-0.59;75.12;98548.06;5008678;28;20046;-72
2022/01/13 10:24:28;;;;;;;62.60;23.75;;;;;;;-0.64;74.98;98553.16;5008482;28;20064;-72
2022/01/13 10:27:04;;;;;;;61.38;23.90;;;;;;;-0.65;75.23;98549.66;5008893;28;20049;-72
2022/01/13 10:29:46;;;;;;;65.13;24.63;;;;;;;-0.59;75.47;98553.41;5008901;28;20049;-72
2022/01/13 10:32:15;;;;;;;59.78;24.85;;;;;;;-0.59;75.14;98548.06;5008486;28;20412;-72
2022/01/13 10:34:44;;;;;;;62.97;24.58;;;;;;;-0.58;74.68;98544.38;5008069;28;20045;-72
2022/01/13 10:37:14;;;;;;;60.67;23.95;;;;;;;-0.49;76.23;98553.91;5008100;28;20413;-72
2022/01/13 10:39:46;;;;;;;55.95;22.80;;;;;;;-0.53;74.42;98548.13;5008323;28;20073;-72
2022/01/13 10:42:32;;;;;;;51.65;20.98;;;;;;;-0.64;74.06;98545.97;5006234;28;20761;-72
2022/01/13 10:44:59;;;;;;;54.70;22.05;;;;;;;-0.69;74.62;98536.88;5008335;28;20053;-72
2022/01/13 10:47:27;;;;;;;56.95;23.10;;;;;;;-0.74;74.34;98531.25;5007984;28;20080;-72
2022/01/13 10:50:00;;;;;;;55.38;22.60;;;;;;;-0.73;74.99;98535.59;5008228;28;20050;-72
2022/01/13 10:52:29;;;;;;;56.95;23.13;;;;;;;-0.85;75.04;98537.97;5008358;28;20045;-72
2022/01/13 10:55:00;;;;;;;55.22;22.40;;;;;;;-0.93;75.88;98541.59;5008220;28;20046;-72
2022/01/13 10:57:28;;;;;;;57.28;24.17;;;;;;;-0.93;76.44;98530.91;5007731;28;20501;-72
2022/01/13 10:59:55;;;;;;;60.33;22.80;;;;;;;-1.04;76.68;98523.41;5007889;28;20744;-73
2022/01/13 11:02:23;;;;;;;59.90;23.73;;;;;;;-1.02;77.64;98520.53;5007740;28;20050;-72
2022/01/13 11:04:49;;;;;;;58.42;23.45;;;;;;;-0.99;77.75;98510.28;5008135;28;20049;-73
2022/01/13 11:07:19;;;;;;;62.58;24.33;;;;;;;-1.02;77.26;98507.16;5007585;28;20399;-72
2022/01/13 11:09:54;;;;;;;60.45;23.30;;;;;;;-1.00;76.97;98492.56;5008159;28;20053;-73
2022/01/13 11:12:29;;;;;;;59.33;22.58;;;;;;;-0.96;76.54;98483.13;5005966;28;20540;-72
2022/01/13 11:15:00;;;;;;;56.25;23.55;;;;;;;-0.71;76.88;98477.38;5008403;28;20057;-71
2022/01/13 11:17:29;;;;;;;56.05;21.80;;;;;;;-0.53;76.25;98483.88;5007950;28;20048;-72
2022/01/13 11:19:57;;;;;;;48.50;21.33;;;;;;;-0.64;74.70;98486.28;5007487;28;20690;-72
2022/01/13 11:22:25;;;;;;;57.20;22.73;;;;;;;-0.83;75.90;98498.50;5007786;28;20424;-72
2022/01/13 11:24:52;;;;;;;50.13;21.13;;;;;;;-0.98;75.81;98500.41;5008017;28;20120;-72
2022/01/13 11:27:19;;;;;;;54.45;23.35;;;;;;;-0.92;76.62;98505.81;5007429;28;20057;-72
2022/01/13 11:29:47;;;;;;;57.55;21.75;;;;;;;-0.70;77.64;98509.28;5007883;28;20617;-72
2022/01/13 11:32:15;;;;;;;56.67;20.98;;;;;;;-0.37;78.29;98514.06;5007670;28;20060;-72
2022/01/13 11:34:42;;;;;;;49.67;21.48;;;;;;;-0.11;76.52;98508.88;5007994;28;20069;-72